Accueil
METAR-TAF:

METAR-TAF

Aéroports :

Hanamaki, Japon

latitude: 39-26N, longitude: 141-08E, altitude: 90 m

Observation

Le bulletin a été fait il y a 42 minutes, à 10:00 UTC
Vent 3 kt de sud
Température 13°C
Humidité 94%
Pression 1013 hPa
Visibilité 10 km ou plus
Quelques nuages à une hauteur de 2000 ft
Nuages épars à une hauteur de 8000 ft
Nuages fragmentés

METAR: RJSI 161000Z 18003KT 9999 FEW020 SCT080 BKN/// 13/12 Q1013

Heure: 19:42 (10:42 UTC)


TAF: absent

Observations et prévisions météorologiques de plus de 4000 aéroports (messages METAR et TAF).

Les stations disponibles sont représentées par des disques jaunes et rouges sur la carte.

Passer la souris dessus pour voir le nom de la station.

Cliquer dessus pour voir les observations et prévisions météorologiques.

Pour changer de carte: cliquez sur les boutons verts avec une croix noire pour zoomer, sur le bouton vert avec un tiret pour effectuer un zoom arrière, ou sur les flèches vertes pour les cartes adjacentes.


METAR-TAF: